createdAt,value
2023-02-11T00:00:39.131Z,83.50
2023-02-11T00:03:42.232Z,70.03
2023-02-11T00:06:44.903Z,78.95
2023-02-11T00:09:47.518Z,79.43
2023-02-11T00:12:50.120Z,101.20
2023-02-11T00:15:55.427Z,95.97
2023-02-11T00:18:59.926Z,81.68
2023-02-11T00:22:02.766Z,77.28
2023-02-11T00:25:06.053Z,66.63
2023-02-11T00:28:09.748Z,61.47
2023-02-11T00:31:15.316Z,53.20
2023-02-11T00:34:18.111Z,58.63
2023-02-11T00:37:20.841Z,56.40
2023-02-11T00:40:23.890Z,57.80
2023-02-11T00:43:26.747Z,47.75
2023-02-11T00:46:31.224Z,51.50
2023-02-11T00:49:34.312Z,49.08
2023-02-11T00:52:37.048Z,49.35
2023-02-11T00:55:39.704Z,46.58
2023-02-11T00:58:42.480Z,51.78
2023-02-11T01:01:47.788Z,47.77
2023-02-11T01:04:50.738Z,48.92
2023-02-11T01:07:53.382Z,46.85
2023-02-11T01:10:57.870Z,40.83
2023-02-11T01:14:00.567Z,44.13
2023-02-11T01:17:06.519Z,44.07
2023-02-11T01:20:14.645Z,43.35
2023-02-11T01:23:17.321Z,43.22
2023-02-11T01:26:19.998Z,44.83
2023-02-11T01:29:23.053Z,54.78
2023-02-11T01:32:27.068Z,46.43
2023-02-11T01:35:30.002Z,45.17
2023-02-11T01:38:33.541Z,55.47
2023-02-11T01:41:55.060Z,43.85
2023-02-11T01:44:58.012Z,41.03
2023-02-11T01:48:02.647Z,48.07
2023-02-11T01:51:09.160Z,48.88
2023-02-11T01:54:33.800Z,41.08
2023-02-11T01:57:39.966Z,50.70
2023-02-11T02:00:43.657Z,47.47
2023-02-11T02:03:52.357Z,42.97
2023-02-11T02:07:03.516Z,47.67
2023-02-11T02:10:11.462Z,44.58
2023-02-11T02:13:14.826Z,41.03
2023-02-11T02:16:21.365Z,38.30
2023-02-11T02:20:01.629Z,40.60
2023-02-11T02:23:27.032Z,38.08
2023-02-11T02:26:46.874Z,42.10
2023-02-11T02:30:36.190Z,37.83
2023-02-11T02:33:50.052Z,39.38
2023-02-11T02:37:01.071Z,40.30
2023-02-11T02:40:09.254Z,39.85
2023-02-11T02:43:13.850Z,41.00
2023-02-11T02:46:19.662Z,40.65
2023-02-11T02:49:23.812Z,46.00
2023-02-11T02:52:35.401Z,43.87
2023-02-11T02:55:48.519Z,49.85
2023-02-11T02:59:29.358Z,46.67
2023-02-11T03:02:37.203Z,53.42
2023-02-11T03:05:51.491Z,49.08
2023-02-11T03:08:59.682Z,46.60
2023-02-11T03:12:04.495Z,48.42
2023-02-11T03:15:08.353Z,49.53
2023-02-11T03:18:31.335Z,46.60
2023-02-11T03:21:37.884Z,49.90
2023-02-11T03:24:41.843Z,50.80
2023-02-11T03:27:55.797Z,52.30
2023-02-11T03:31:09.873Z,50.95
2023-02-11T03:34:16.195Z,47.00
2023-02-11T03:37:27.954Z,45.75
2023-02-11T03:40:35.325Z,49.53
2023-02-11T03:43:42.311Z,52.63
2023-02-11T03:46:49.096Z,58.15
2023-02-11T03:49:54.680Z,50.25
2023-02-11T03:53:01.413Z,48.53
2023-02-11T03:56:09.068Z,45.13
2023-02-11T03:59:11.757Z,48.70
2023-02-11T04:02:14.445Z,41.00
2023-02-11T04:05:17.079Z,34.78
2023-02-11T04:08:21.232Z,38.65
2023-02-11T04:11:23.947Z,43.70
2023-02-11T04:14:26.630Z,38.30
2023-02-11T04:17:29.572Z,49.20
2023-02-11T04:20:32.234Z,51.97
2023-02-11T04:23:36.346Z,50.55
2023-02-11T04:26:38.960Z,45.40
2023-02-11T04:29:41.731Z,54.28
2023-02-11T04:32:44.426Z,40.28
2023-02-11T04:35:47.223Z,37.80
2023-02-11T04:38:51.432Z,46.00
2023-02-11T04:41:54.037Z,35.33
2023-02-11T04:44:56.680Z,38.75
2023-02-11T04:47:59.411Z,40.45
2023-02-11T04:51:02.705Z,41.63
2023-02-11T04:54:06.916Z,42.15
2023-02-11T04:57:09.674Z,48.00
2023-02-11T05:00:13.465Z,83.82
2023-02-11T05:03:17.483Z,86.05
2023-02-11T05:06:20.144Z,74.68
2023-02-11T05:09:24.556Z,58.58
2023-02-11T05:12:27.231Z,59.27
2023-02-11T05:15:29.948Z,57.70
2023-02-11T05:18:32.524Z,72.75
2023-02-11T05:21:35.425Z,66.30
2023-02-11T05:24:39.751Z,56.90
2023-02-11T05:27:42.477Z,140.83
2023-02-11T05:30:45.146Z,80.47
2023-02-11T05:33:47.862Z,65.82
2023-02-11T05:36:50.513Z,56.90
2023-02-11T05:39:54.825Z,47.55
2023-02-11T05:42:57.551Z,43.90
2023-02-11T05:46:00.282Z,48.00
2023-02-11T05:49:03.344Z,48.45
2023-02-11T05:52:06.071Z,43.83
2023-02-11T05:55:10.223Z,36.85
2023-02-11T05:58:13.694Z,33.83
2023-02-11T06:01:16.720Z,48.60
2023-02-11T06:04:19.535Z,37.22
2023-02-11T06:07:22.355Z,47.65
2023-02-11T06:10:26.788Z,47.28
2023-02-11T06:13:29.425Z,43.13
2023-02-11T06:16:32.313Z,60.78
2023-02-11T06:19:35.094Z,74.43
2023-02-11T06:22:38.155Z,92.22
2023-02-11T06:25:43.602Z,97.50
2023-02-11T06:28:46.803Z,72.37
2023-02-11T06:31:49.432Z,63.35
2023-02-11T06:34:52.065Z,55.53
2023-02-11T06:37:54.834Z,65.63
2023-02-11T06:40:58.877Z,63.47
2023-02-11T06:44:01.555Z,69.30
2023-02-11T06:47:04.341Z,109.93
2023-02-11T06:50:08.899Z,108.63
2023-02-11T06:53:11.562Z,82.43
2023-02-11T06:56:17.393Z,76.53
2023-02-11T06:59:20.818Z,66.37
2023-02-11T07:02:23.470Z,65.78
2023-02-11T07:05:26.369Z,54.75
2023-02-11T07:08:29.378Z,51.28
2023-02-11T07:11:33.940Z,52.47
2023-02-11T07:14:36.620Z,45.63
2023-02-11T07:17:39.258Z,54.17
2023-02-11T07:20:42.112Z,54.25
2023-02-11T07:23:45.973Z,46.38
2023-02-11T07:26:50.457Z,58.80
2023-02-11T07:29:53.169Z,52.93
2023-02-11T07:32:56.555Z,50.00
2023-02-11T07:36:00.448Z,51.78
2023-02-11T07:39:04.315Z,52.53
2023-02-11T07:42:08.589Z,57.90
2023-02-11T07:45:12.681Z,52.90
2023-02-11T07:48:15.340Z,59.00
2023-02-11T07:51:20.466Z,113.35
2023-02-11T07:54:23.354Z,45.92
2023-02-11T07:57:27.498Z,48.38
2023-02-11T08:00:30.284Z,49.33
2023-02-11T08:03:33.782Z,51.95
2023-02-11T08:06:41.431Z,42.78
2023-02-11T08:09:44.947Z,48.33
2023-02-11T08:12:49.467Z,45.42
2023-02-11T08:15:52.351Z,46.03
2023-02-11T08:18:57.698Z,47.80
2023-02-11T08:22:01.439Z,41.80
2023-02-11T08:25:04.496Z,46.97
2023-02-11T08:28:09.287Z,45.08
2023-02-11T08:31:14.342Z,48.53
2023-02-11T08:34:20.276Z,46.13
2023-02-11T08:37:23.102Z,51.20
2023-02-11T08:40:25.970Z,51.25
2023-02-11T08:43:30.311Z,54.78
2023-02-11T08:46:33.119Z,55.77
2023-02-11T08:49:36.509Z,54.53
2023-02-11T08:52:39.366Z,42.88
2023-02-11T08:55:48.847Z,46.05
2023-02-11T08:58:53.659Z,48.42
2023-02-11T09:01:57.226Z,50.47
2023-02-11T09:04:59.949Z,46.70
2023-02-11T09:08:02.641Z,44.00
2023-02-11T09:11:05.931Z,46.83
2023-02-11T09:14:16.712Z,45.72
2023-02-11T09:17:19.530Z,51.70
2023-02-11T09:20:22.296Z,51.03
2023-02-11T09:23:25.273Z,46.80
2023-02-11T09:26:30.578Z,45.90
2023-02-11T09:29:35.383Z,45.22
2023-02-11T09:32:38.074Z,44.63
2023-02-11T09:35:40.768Z,48.67
2023-02-11T09:38:44.159Z,48.03
2023-02-11T09:42:05.738Z,47.75
2023-02-11T09:45:17.484Z,47.35
2023-02-11T09:48:22.606Z,43.90
2023-02-11T09:51:36.468Z,48.78
2023-02-11T09:54:52.724Z,56.00
2023-02-11T09:57:56.237Z,49.00
2023-02-11T10:01:08.552Z,45.80
2023-02-11T10:04:17.693Z,46.27
2023-02-11T10:07:27.492Z,52.85
2023-02-11T10:10:43.935Z,41.58
2023-02-11T10:13:55.414Z,48.75
2023-02-11T10:17:12.787Z,42.05
2023-02-11T10:20:26.291Z,46.27
2023-02-11T10:23:34.974Z,43.05
2023-02-11T10:26:39.893Z,40.35
2023-02-11T10:29:48.215Z,40.63
2023-02-11T10:32:57.183Z,38.33
2023-02-11T10:36:00.191Z,46.83
2023-02-11T10:39:11.663Z,40.65
2023-02-11T10:42:15.883Z,46.88
2023-02-11T10:45:25.246Z,45.75
2023-02-11T10:48:44.420Z,47.75
2023-02-11T10:51:47.347Z,41.60
2023-02-11T10:55:02.236Z,50.17
2023-02-11T10:58:05.053Z,51.00
2023-02-11T11:01:23.416Z,65.75
2023-02-11T11:04:41.075Z,55.47
2023-02-11T11:07:54.299Z,45.93
2023-02-11T11:11:04.075Z,42.17
2023-02-11T11:14:19.570Z,45.40
2023-02-11T11:17:22.547Z,48.15
2023-02-11T11:20:29.407Z,50.65
2023-02-11T11:23:34.712Z,54.50
2023-02-11T11:26:42.505Z,51.33
2023-02-11T11:29:49.285Z,49.45
2023-02-11T11:32:52.378Z,47.08
2023-02-11T11:36:00.952Z,55.90
2023-02-11T11:39:18.730Z,68.67
2023-02-11T11:42:26.181Z,56.17
2023-02-11T11:45:28.865Z,40.58
2023-02-11T11:48:35.183Z,38.03
2023-02-11T11:51:42.134Z,37.78
2023-02-11T11:54:53.604Z,38.00
2023-02-11T11:57:56.321Z,27.25
2023-02-11T12:01:15.115Z,34.20
2023-02-11T12:04:36.833Z,31.15
2023-02-11T12:07:52.698Z,35.40
2023-02-11T12:11:09.130Z,36.00
2023-02-11T12:14:20.546Z,25.58
2023-02-11T12:17:36.694Z,37.33
2023-02-11T12:20:53.865Z,41.67
2023-02-11T12:24:10.329Z,37.22
2023-02-11T12:27:18.414Z,30.03
2023-02-11T12:30:49.160Z,34.72
2023-02-11T12:34:14.245Z,27.77
2023-02-11T12:37:33.224Z,36.60
2023-02-11T12:40:46.831Z,30.80
2023-02-11T12:43:50.555Z,35.17
2023-02-11T12:47:03.071Z,38.28
2023-02-11T12:50:17.406Z,36.63
2023-02-11T12:53:39.517Z,32.22
2023-02-11T12:56:48.668Z,38.60
2023-02-11T12:59:58.999Z,41.43
2023-02-11T13:03:11.074Z,36.75
2023-02-11T13:06:17.835Z,37.05
2023-02-11T13:09:25.343Z,40.13
2023-02-11T13:12:51.082Z,43.00
2023-02-11T13:15:58.673Z,42.60
2023-02-11T13:19:14.028Z,37.40
2023-02-11T13:22:19.781Z,44.70
2023-02-11T13:25:31.529Z,44.97
2023-02-11T13:28:45.216Z,39.35
2023-02-11T13:31:54.697Z,38.90
2023-02-11T13:34:58.431Z,37.88
2023-02-11T13:38:03.393Z,45.20
2023-02-11T13:41:18.367Z,35.38
2023-02-11T13:44:26.624Z,34.42
2023-02-11T13:47:33.084Z,36.00
2023-02-11T13:50:39.764Z,41.40
2023-02-11T13:53:47.388Z,35.28
2023-02-11T13:57:26.324Z,40.10
2023-02-11T14:00:50.378Z,36.00
2023-02-11T14:04:39.420Z,35.57
2023-02-11T14:08:32.331Z,40.22
2023-02-11T14:11:49.066Z,40.25
2023-02-11T14:15:13.924Z,49.88
2023-02-11T14:18:57.318Z,53.20
2023-02-11T14:22:03.179Z,40.17
2023-02-11T14:25:18.340Z,39.70
2023-02-11T14:28:44.802Z,38.72
2023-02-11T14:31:57.652Z,38.42
2023-02-11T14:35:10.162Z,35.15
2023-02-11T14:38:23.119Z,35.23
2023-02-11T14:41:29.474Z,45.85
2023-02-11T14:44:34.230Z,40.85
2023-02-11T14:47:44.731Z,44.88
2023-02-11T14:50:52.994Z,46.17
2023-02-11T14:54:01.036Z,49.17
2023-02-11T14:57:09.309Z,53.08
2023-02-11T15:00:18.180Z,44.88
2023-02-11T15:03:32.863Z,50.13
2023-02-11T15:06:40.018Z,47.88
2023-02-11T15:09:46.468Z,41.37
2023-02-11T15:12:50.000Z,56.55
2023-02-11T15:15:57.856Z,64.38
2023-02-11T15:19:05.122Z,56.20
2023-02-11T15:22:20.147Z,47.03
2023-02-11T15:25:24.053Z,60.63
2023-02-11T15:28:29.127Z,54.08
2023-02-11T15:31:35.089Z,49.63
2023-02-11T15:34:39.238Z,42.92
2023-02-11T15:37:44.338Z,51.78
2023-02-11T15:40:56.703Z,52.63
2023-02-11T15:43:59.581Z,53.92
2023-02-11T15:47:02.439Z,50.15
2023-02-11T15:50:06.566Z,65.88
2023-02-11T15:53:25.424Z,91.00
2023-02-11T15:56:32.908Z,128.00
2023-02-11T15:59:38.389Z,94.00
2023-02-11T16:02:45.226Z,101.70
2023-02-11T16:05:49.494Z,71.45
2023-02-11T16:09:02.897Z,56.80
2023-02-11T16:12:23.456Z,88.33
2023-02-11T16:15:41.444Z,85.28
2023-02-11T16:19:02.110Z,73.43
2023-02-11T16:22:10.528Z,66.05
2023-02-11T16:25:20.206Z,63.83
2023-02-11T16:28:23.384Z,86.47
2023-02-11T16:31:33.206Z,127.50
2023-02-11T16:34:36.717Z,122.45
2023-02-11T16:37:39.571Z,116.50
2023-02-11T16:40:46.079Z,130.50
2023-02-11T16:43:49.062Z,102.00
2023-02-11T16:46:53.096Z,107.65
2023-02-11T16:49:57.504Z,77.90
2023-02-11T16:53:02.170Z,89.68
2023-02-11T16:56:06.867Z,98.45
2023-02-11T16:59:10.115Z,83.73
2023-02-11T17:02:15.720Z,83.13
2023-02-11T17:05:22.904Z,108.50
2023-02-11T17:08:25.837Z,72.80
2023-02-11T17:11:30.163Z,67.22
2023-02-11T17:14:33.236Z,59.47
2023-02-11T17:17:36.086Z,56.38
2023-02-11T17:20:39.019Z,53.60
2023-02-11T17:23:43.292Z,79.03
2023-02-11T17:26:48.046Z,43.90
2023-02-11T17:29:50.956Z,49.00
2023-02-11T17:32:53.867Z,50.33
2023-02-11T17:35:57.742Z,84.00
2023-02-11T17:39:01.192Z,171.07
2023-02-11T17:42:06.444Z,65.43
2023-02-11T17:45:10.133Z,58.63
2023-02-11T17:48:13.057Z,66.68
2023-02-11T17:51:23.898Z,59.75
2023-02-11T17:54:26.907Z,49.85
2023-02-11T17:57:31.287Z,47.78
2023-02-11T18:00:34.284Z,47.77
2023-02-11T18:03:37.558Z,61.92
2023-02-11T18:06:41.449Z,65.03
2023-02-11T18:09:45.149Z,62.05
2023-02-11T18:12:49.411Z,65.40
2023-02-11T18:15:52.938Z,64.73
2023-02-11T18:18:56.937Z,78.05
2023-02-11T18:22:01.187Z,69.78
2023-02-11T18:25:05.061Z,74.18
2023-02-11T18:28:09.417Z,76.38
2023-02-11T18:31:12.574Z,92.57
2023-02-11T18:34:17.008Z,80.65
2023-02-11T18:37:19.996Z,77.63
2023-02-11T18:40:22.912Z,54.33
2023-02-11T18:43:31.583Z,47.42
2023-02-11T18:46:34.404Z,52.80
2023-02-11T18:49:37.477Z,50.15
2023-02-11T18:52:40.467Z,42.30
2023-02-11T18:55:45.489Z,50.15
2023-02-11T18:58:51.390Z,52.83
2023-02-11T19:01:55.602Z,50.40
2023-02-11T19:04:58.616Z,50.00
2023-02-11T19:08:01.530Z,51.95
2023-02-11T19:11:05.060Z,57.38
2023-02-11T19:14:10.418Z,57.60
2023-02-11T19:17:13.496Z,60.07
2023-02-11T19:20:16.854Z,63.05
2023-02-11T19:23:19.811Z,63.70
2023-02-11T19:26:24.205Z,56.90
2023-02-11T19:29:29.372Z,58.30
2023-02-11T19:32:32.517Z,63.77
2023-02-11T19:35:35.696Z,72.93
2023-02-11T19:38:39.046Z,67.70
2023-02-11T19:41:43.278Z,71.05
2023-02-11T19:44:47.720Z,59.30
2023-02-11T19:47:55.478Z,52.97
2023-02-11T19:50:58.839Z,51.22
2023-02-11T19:54:01.994Z,52.67
2023-02-11T19:57:04.677Z,55.67
2023-02-11T20:00:11.184Z,59.55
2023-02-11T20:03:17.109Z,61.57
2023-02-11T20:06:23.508Z,61.63
2023-02-11T20:09:29.006Z,53.80
2023-02-11T20:12:31.926Z,64.07
2023-02-11T20:15:36.750Z,54.42
2023-02-11T20:18:40.382Z,62.67
2023-02-11T20:21:46.606Z,61.20
2023-02-11T20:24:49.881Z,61.63
2023-02-11T20:27:52.947Z,66.00
2023-02-11T20:30:58.032Z,65.80
2023-02-11T20:34:01.833Z,73.33
2023-02-11T20:37:06.029Z,60.28
2023-02-11T20:40:09.653Z,56.35
2023-02-11T20:43:21.028Z,53.30
2023-02-11T20:46:27.792Z,56.60
2023-02-11T20:49:30.805Z,45.07
2023-02-11T20:52:34.321Z,49.75
2023-02-11T20:55:38.525Z,54.63
2023-02-11T20:58:41.856Z,53.90
2023-02-11T21:01:48.331Z,52.20
2023-02-11T21:04:51.235Z,68.83
2023-02-11T21:07:54.275Z,73.93
2023-02-11T21:10:57.330Z,86.03
2023-02-11T21:14:02.403Z,88.28
2023-02-11T21:17:07.536Z,70.93
2023-02-11T21:20:10.943Z,71.23
2023-02-11T21:23:13.875Z,62.08
2023-02-11T21:26:17.215Z,48.67
2023-02-11T21:29:20.150Z,48.67
2023-02-11T21:32:24.467Z,44.03
2023-02-11T21:35:27.419Z,49.77
2023-02-11T21:38:31.113Z,45.13
2023-02-11T21:41:34.868Z,46.13
2023-02-11T21:44:38.093Z,40.20
2023-02-11T21:47:42.102Z,38.58
2023-02-11T21:50:46.687Z,43.47
2023-02-11T21:53:53.838Z,41.22
2023-02-11T21:56:57.364Z,47.08
2023-02-11T22:00:00.282Z,45.45
2023-02-11T22:03:04.540Z,45.88
2023-02-11T22:06:09.557Z,51.37
2023-02-11T22:09:12.472Z,53.28
2023-02-11T22:12:15.197Z,51.75
2023-02-11T22:15:18.133Z,53.13
2023-02-11T22:18:22.529Z,54.80
2023-02-11T22:21:25.397Z,54.37
2023-02-11T22:24:29.649Z,54.63
2023-02-11T22:27:32.262Z,50.35
2023-02-11T22:30:35.254Z,52.85
2023-02-11T22:33:39.662Z,44.95
2023-02-11T22:36:42.379Z,45.07
2023-02-11T22:39:45.159Z,43.22
2023-02-11T22:42:47.975Z,39.33
2023-02-11T22:45:52.190Z,44.08
2023-02-11T22:48:56.761Z,41.97
2023-02-11T22:52:00.044Z,42.43
2023-02-11T22:55:02.701Z,43.70
2023-02-11T22:58:05.509Z,41.42
2023-02-11T23:01:08.273Z,41.00
2023-02-11T23:04:14.565Z,39.63
2023-02-11T23:07:17.404Z,46.27
2023-02-11T23:10:20.309Z,47.72
2023-02-11T23:13:23.121Z,45.08
2023-02-11T23:16:28.121Z,46.53
2023-02-11T23:19:32.359Z,44.70
2023-02-11T23:22:35.382Z,48.67
2023-02-11T23:25:42.680Z,49.25
2023-02-11T23:28:46.120Z,53.38
2023-02-11T23:31:49.845Z,57.60
2023-02-11T23:34:54.925Z,55.20
2023-02-11T23:37:57.555Z,65.73
2023-02-11T23:41:00.209Z,48.03
2023-02-11T23:44:04.183Z,44.70
2023-02-11T23:47:07.073Z,44.70
2023-02-11T23:50:12.142Z,47.92
2023-02-11T23:53:15.230Z,46.13
2023-02-11T23:56:20.489Z,42.90
2023-02-11T23:59:23.247Z,45.13
